Fountain Hills, Arizona
Current Conditions -  °F | °C
As of 4:53 AM on Friday 28 Nov 2014 (Local Time) from KSDL Reporting Station
Clear Clear  
Wind Chill: 52°   Ceiling: Unl
Heat Index: 52°   Visibility: 10mi
Dew Point: 28°   Wind: 0mph
Humidity: 40%   Direction: NA
Pressure: 30.05"   Gusts: NA
Location:  33.61°N, 111.71°W
Report Text: KSDL 281153Z 00000KT 10SM CLR 11/M02 A3005 RMK AO2 SLP160 T01111022 10156 20106 58008
Loading
Personal Weather Stations






























Interactive Weather Map New forecast layout! Learn more

10-Day Weather Forecast

Advertisements
Track Severe Weather on mobile